createdAt,value
2017-09-30T00:02:07.592Z,14.00
2017-09-30T00:04:35.686Z,14.00
2017-09-30T00:07:04.527Z,14.10
2017-09-30T00:09:32.620Z,14.10
2017-09-30T00:12:00.899Z,14.20
2017-09-30T00:14:30.494Z,14.20
2017-09-30T00:16:58.674Z,14.20
2017-09-30T00:19:26.831Z,14.10
2017-09-30T00:21:54.925Z,14.10
2017-09-30T00:24:23.007Z,14.10
2017-09-30T00:26:51.982Z,14.00
2017-09-30T00:29:20.071Z,14.00
2017-09-30T00:31:48.927Z,14.00
2017-09-30T00:34:17.007Z,14.00
2017-09-30T00:36:45.089Z,14.00
2017-09-30T00:39:13.176Z,14.00
2017-09-30T00:41:41.275Z,14.00
2017-09-30T00:44:09.361Z,14.00
2017-09-30T00:46:37.566Z,14.00
2017-09-30T00:49:05.646Z,14.00
2017-09-30T00:51:33.778Z,14.00
2017-09-30T00:54:01.979Z,14.00
2017-09-30T00:56:30.068Z,13.80
2017-09-30T00:58:58.215Z,13.80
2017-09-30T01:01:26.295Z,13.90
2017-09-30T01:03:54.463Z,13.90
2017-09-30T01:06:22.552Z,13.90
2017-09-30T01:08:50.811Z,13.90
2017-09-30T01:11:20.416Z,13.80
2017-09-30T01:13:48.600Z,13.80
2017-09-30T01:16:17.453Z,13.70
2017-09-30T01:18:45.535Z,13.70
2017-09-30T01:21:13.611Z,13.80
2017-09-30T01:23:41.709Z,13.70
2017-09-30T01:26:09.795Z,13.60
2017-09-30T01:28:38.031Z,13.60
2017-09-30T01:31:06.123Z,13.60
2017-09-30T01:33:34.211Z,13.60
2017-09-30T01:36:02.327Z,13.70
2017-09-30T01:38:30.427Z,13.70
2017-09-30T01:40:59.359Z,13.70
2017-09-30T01:43:27.483Z,13.70
2017-09-30T01:45:55.589Z,13.70
2017-09-30T01:48:23.665Z,13.60
2017-09-30T01:50:51.763Z,13.50
2017-09-30T01:53:19.850Z,13.50
2017-09-30T01:55:47.971Z,13.50
2017-09-30T01:58:16.795Z,13.60
2017-09-30T02:00:44.906Z,13.60
2017-09-30T02:03:13.755Z,13.50
2017-09-30T02:05:41.948Z,13.50
2017-09-30T02:08:10.034Z,13.50
2017-09-30T02:10:38.124Z,13.50
2017-09-30T02:13:06.238Z,13.50
2017-09-30T02:15:34.316Z,13.60
2017-09-30T02:18:02.407Z,13.60
2017-09-30T02:20:30.497Z,13.70
2017-09-30T02:22:59.355Z,13.60
2017-09-30T02:25:27.444Z,13.60
2017-09-30T02:27:56.419Z,13.60
2017-09-30T02:30:26.134Z,13.60
2017-09-30T02:32:54.211Z,13.60
2017-09-30T02:35:23.071Z,13.60
2017-09-30T02:37:51.242Z,13.60
2017-09-30T02:40:19.332Z,13.60
2017-09-30T02:42:47.416Z,13.60
2017-09-30T02:45:16.275Z,13.40
2017-09-30T02:47:44.463Z,13.40
2017-09-30T02:50:12.735Z,13.40
2017-09-30T02:52:40.823Z,13.40
2017-09-30T02:55:09.684Z,13.40
2017-09-30T02:57:37.787Z,13.40
2017-09-30T03:00:06.627Z,13.40
2017-09-30T03:02:34.716Z,13.40
2017-09-30T03:05:02.803Z,13.40
2017-09-30T03:07:30.887Z,13.30
2017-09-30T03:09:59.739Z,13.40
2017-09-30T03:12:27.823Z,13.30
2017-09-30T03:14:56.698Z,13.30
2017-09-30T03:17:24.794Z,13.30
2017-09-30T03:19:52.880Z,13.20
2017-09-30T03:22:20.966Z,13.10
2017-09-30T03:24:49.047Z,13.00
2017-09-30T03:27:17.142Z,12.90
2017-09-30T03:29:45.232Z,13.00
2017-09-30T03:32:14.107Z,13.10
2017-09-30T03:34:42.295Z,13.10
2017-09-30T03:37:10.379Z,13.10
2017-09-30T03:39:39.240Z,12.90
2017-09-30T03:42:07.324Z,12.90
2017-09-30T03:44:36.922Z,12.80
2017-09-30T03:47:05.112Z,12.80
2017-09-30T03:49:33.211Z,12.80
2017-09-30T03:52:01.327Z,12.80
2017-09-30T03:54:29.413Z,12.80
2017-09-30T03:56:58.383Z,12.60
2017-09-30T03:59:26.476Z,12.60
2017-09-30T04:01:54.555Z,12.50
2017-09-30T04:04:23.411Z,12.30
2017-09-30T04:06:51.607Z,12.30
2017-09-30T04:09:19.692Z,12.40
2017-09-30T04:11:48.552Z,12.40
2017-09-30T04:14:16.755Z,12.40
2017-09-30T04:16:45.728Z,12.50
2017-09-30T04:19:13.853Z,12.50
2017-09-30T04:21:41.952Z,12.50
2017-09-30T04:24:10.049Z,12.40
2017-09-30T04:26:38.133Z,12.40
2017-09-30T04:29:06.987Z,12.50
2017-09-30T04:31:35.084Z,12.40
2017-09-30T04:34:03.172Z,12.30
2017-09-30T04:36:32.024Z,12.20
2017-09-30T04:39:00.127Z,12.20
2017-09-30T04:41:28.979Z,12.00
2017-09-30T04:43:57.083Z,12.00
2017-09-30T04:46:25.228Z,12.10
2017-09-30T04:48:53.311Z,12.00
2017-09-30T04:51:21.692Z,12.10
2017-09-30T04:53:49.841Z,12.10
2017-09-30T04:56:17.930Z,12.20
2017-09-30T04:58:46.044Z,12.20
2017-09-30T05:01:14.145Z,12.30
2017-09-30T05:03:42.232Z,12.30
2017-09-30T05:06:10.333Z,12.30
2017-09-30T05:08:38.420Z,12.40
2017-09-30T05:11:06.539Z,12.50
2017-09-30T05:13:34.726Z,12.50
2017-09-30T05:16:02.825Z,12.60
2017-09-30T05:18:30.911Z,12.60
2017-09-30T05:20:59.136Z,12.70
2017-09-30T05:23:27.216Z,12.70
2017-09-30T05:25:55.309Z,12.80
2017-09-30T05:28:24.160Z,12.80
2017-09-30T05:30:52.248Z,12.80
2017-09-30T05:33:20.331Z,12.90
2017-09-30T05:35:48.460Z,12.90
2017-09-30T05:38:16.556Z,12.90
2017-09-30T05:40:44.821Z,12.90
2017-09-30T05:43:12.911Z,12.90
2017-09-30T05:45:41.778Z,13.00
2017-09-30T05:48:10.035Z,12.90
2017-09-30T05:50:38.132Z,13.00
2017-09-30T05:53:06.213Z,13.00
2017-09-30T05:55:35.071Z,13.10
2017-09-30T05:58:03.155Z,13.10
2017-09-30T06:00:31.335Z,13.10
2017-09-30T06:03:00.422Z,13.20
2017-09-30T06:05:28.506Z,13.20
2017-09-30T06:07:57.356Z,13.50
2017-09-30T06:10:25.447Z,13.50
2017-09-30T06:12:53.539Z,13.60
2017-09-30T06:15:22.395Z,13.60
2017-09-30T06:17:50.488Z,13.60
2017-09-30T06:20:18.579Z,13.90
2017-09-30T06:22:47.427Z,14.10
2017-09-30T06:25:15.514Z,14.10
2017-09-30T06:27:43.602Z,14.10
2017-09-30T06:30:12.456Z,14.40
2017-09-30T06:32:40.558Z,14.40
2017-09-30T06:35:08.642Z,14.50
2017-09-30T06:37:36.727Z,14.60
2017-09-30T06:40:04.820Z,14.60
2017-09-30T06:42:32.897Z,14.70
2017-09-30T06:45:00.987Z,14.70
2017-09-30T06:47:29.252Z,14.80
2017-09-30T06:49:57.336Z,15.00
2017-09-30T06:52:25.432Z,15.10
2017-09-30T06:54:54.277Z,15.00
2017-09-30T06:57:22.368Z,15.00
2017-09-30T06:59:51.512Z,14.90
2017-09-30T07:02:19.600Z,15.00
2017-09-30T07:04:47.695Z,15.00
2017-09-30T07:07:17.309Z,15.40
2017-09-30T07:09:45.572Z,15.40
2017-09-30T07:12:13.651Z,15.50
2017-09-30T07:14:41.734Z,15.60
2017-09-30T07:17:10.591Z,15.70
2017-09-30T07:19:38.674Z,15.70
2017-09-30T07:22:07.058Z,16.00
2017-09-30T07:24:36.673Z,16.20
2017-09-30T07:27:04.844Z,16.20
2017-09-30T07:29:32.986Z,16.30
2017-09-30T07:32:01.180Z,16.10
2017-09-30T07:34:30.766Z,16.00
2017-09-30T07:36:58.855Z,16.00
2017-09-30T07:39:27.036Z,16.00
2017-09-30T07:41:55.923Z,15.90
2017-09-30T07:44:24.019Z,15.90
2017-09-30T07:46:52.263Z,15.80
2017-09-30T07:49:21.855Z,15.70
2017-09-30T07:51:50.040Z,15.70
2017-09-30T07:54:19.753Z,15.80
2017-09-30T07:56:47.907Z,15.80
2017-09-30T07:59:16.000Z,15.80
2017-09-30T08:01:44.184Z,15.90
2017-09-30T08:04:12.264Z,16.10
2017-09-30T08:06:40.362Z,16.20
2017-09-30T08:09:08.453Z,16.40
2017-09-30T08:11:36.543Z,16.40
2017-09-30T08:14:04.729Z,16.40
2017-09-30T08:16:32.875Z,16.50
2017-09-30T08:19:00.965Z,17.00
2017-09-30T08:21:29.136Z,17.10
2017-09-30T08:23:57.996Z,17.20
2017-09-30T08:26:26.087Z,17.20
2017-09-30T08:28:55.682Z,17.40
2017-09-30T08:31:23.791Z,17.40
2017-09-30T08:33:52.639Z,17.10
2017-09-30T08:36:20.836Z,17.10
2017-09-30T08:38:48.935Z,17.10
2017-09-30T08:41:17.025Z,17.00
2017-09-30T08:43:45.242Z,17.20
2017-09-30T08:46:14.841Z,17.10
2017-09-30T08:48:42.918Z,17.10
2017-09-30T08:51:11.116Z,17.20
2017-09-30T08:53:39.209Z,17.40
2017-09-30T08:56:07.315Z,17.80
2017-09-30T08:58:35.390Z,18.00
2017-09-30T09:01:03.526Z,18.10
2017-09-30T09:03:31.659Z,17.70
2017-09-30T09:05:59.750Z,17.40
2017-09-30T09:08:27.836Z,17.50
2017-09-30T09:10:55.937Z,17.50
2017-09-30T09:13:24.027Z,17.50
2017-09-30T09:15:52.121Z,17.50
2017-09-30T09:18:20.975Z,17.50
2017-09-30T09:20:49.054Z,17.50
2017-09-30T09:23:17.231Z,17.40
2017-09-30T09:25:45.399Z,17.60
2017-09-30T09:28:13.490Z,17.70
2017-09-30T09:36:41.994Z,18.40
2017-09-30T09:39:10.072Z,18.50
2017-09-30T09:41:38.935Z,18.40
2017-09-30T09:44:07.014Z,18.40
2017-09-30T09:46:35.099Z,18.40
2017-09-30T09:49:03.954Z,18.90
2017-09-30T09:51:32.065Z,18.90
2017-09-30T09:54:00.908Z,19.30
2017-09-30T09:56:29.119Z,19.30
2017-09-30T09:58:57.383Z,19.50
2017-09-30T10:01:25.659Z,19.60
2017-09-30T10:03:53.749Z,19.80
2017-09-30T10:06:22.628Z,20.00
2017-09-30T10:08:50.784Z,20.00
2017-09-30T10:11:18.886Z,20.30
2017-09-30T10:13:47.721Z,20.00
2017-09-30T10:16:15.816Z,19.90
2017-09-30T10:18:43.895Z,20.20
2017-09-30T10:21:12.067Z,20.10
2017-09-30T10:23:40.154Z,20.10
2017-09-30T10:26:08.294Z,20.20
2017-09-30T10:28:36.371Z,20.50
2017-09-30T10:31:04.459Z,20.50
2017-09-30T10:33:33.442Z,20.70
2017-09-30T10:36:01.531Z,20.60
2017-09-30T10:38:29.616Z,20.60
2017-09-30T10:40:57.847Z,20.80
2017-09-30T10:43:26.019Z,20.30
2017-09-30T10:45:54.105Z,20.30
2017-09-30T10:48:22.199Z,20.20
2017-09-30T10:50:50.279Z,20.40
2017-09-30T10:53:18.502Z,20.60
2017-09-30T10:55:46.591Z,20.80
2017-09-30T10:58:15.456Z,20.80
2017-09-30T11:00:43.551Z,20.80
2017-09-30T11:03:12.532Z,20.20
2017-09-30T11:05:41.378Z,20.30
2017-09-30T11:08:09.580Z,20.30
2017-09-30T11:10:37.664Z,20.10
2017-09-30T11:13:05.760Z,20.00
2017-09-30T11:15:34.724Z,19.80
2017-09-30T11:18:02.999Z,19.80
2017-09-30T11:20:31.112Z,20.10
2017-09-30T11:22:59.196Z,20.10
2017-09-30T11:25:27.287Z,20.20
2017-09-30T11:27:55.384Z,20.00
2017-09-30T11:30:23.468Z,19.80
2017-09-30T11:32:52.324Z,19.80
2017-09-30T11:35:20.412Z,19.80
2017-09-30T11:37:48.504Z,19.80
2017-09-30T11:40:17.351Z,19.90
2017-09-30T11:42:45.440Z,19.90
2017-09-30T11:45:13.527Z,19.90
2017-09-30T11:47:42.391Z,20.00
2017-09-30T11:50:10.475Z,20.00
2017-09-30T11:52:38.568Z,19.90
2017-09-30T11:55:06.653Z,20.00
2017-09-30T11:57:34.746Z,19.90
2017-09-30T12:00:02.836Z,19.90
2017-09-30T12:02:30.935Z,19.70
2017-09-30T12:04:59.795Z,19.60
2017-09-30T12:07:27.907Z,19.60
2017-09-30T12:09:56.767Z,19.80
2017-09-30T12:12:24.861Z,19.80
2017-09-30T12:14:53.715Z,19.80
2017-09-30T12:17:21.808Z,19.80
2017-09-30T12:19:50.655Z,20.20
2017-09-30T12:22:18.749Z,20.20
2017-09-30T12:24:46.830Z,20.50
2017-09-30T12:27:14.915Z,20.30
2017-09-30T12:29:43.773Z,20.50
2017-09-30T12:32:11.876Z,20.50
2017-09-30T12:34:40.717Z,21.10
2017-09-30T12:37:08.813Z,21.10
2017-09-30T12:39:36.895Z,21.40
2017-09-30T12:42:05.743Z,21.10
2017-09-30T12:44:33.836Z,21.20
2017-09-30T12:47:01.919Z,21.20
2017-09-30T12:49:30.015Z,21.60
2017-09-30T12:51:58.091Z,21.70
2017-09-30T12:54:26.186Z,21.40
2017-09-30T12:56:54.399Z,21.20
2017-09-30T12:59:24.112Z,21.10
2017-09-30T13:01:52.250Z,21.10
2017-09-30T13:04:20.351Z,20.80
2017-09-30T13:06:48.531Z,20.60
2017-09-30T13:09:17.390Z,20.60
2017-09-30T13:11:45.686Z,20.60
2017-09-30T13:14:13.791Z,20.70
2017-09-30T13:16:41.897Z,20.90
2017-09-30T13:19:09.978Z,20.80
2017-09-30T13:21:38.075Z,20.80
2017-09-30T13:24:06.163Z,20.90
2017-09-30T13:26:34.252Z,20.70
2017-09-30T13:29:02.335Z,20.80
2017-09-30T13:31:30.419Z,20.80
2017-09-30T13:33:58.503Z,20.70
2017-09-30T13:36:26.589Z,20.50
2017-09-30T13:38:54.666Z,20.50
2017-09-30T13:41:23.528Z,20.90
2017-09-30T13:43:51.613Z,20.90
2017-09-30T13:46:19.694Z,21.30
2017-09-30T13:48:47.788Z,21.20
2017-09-30T13:51:15.879Z,21.10
2017-09-30T13:53:43.975Z,20.80
2017-09-30T13:56:12.060Z,20.90
2017-09-30T13:58:40.147Z,21.10
2017-09-30T14:01:08.223Z,20.90
2017-09-30T14:03:37.080Z,20.80
2017-09-30T14:06:05.164Z,20.80
2017-09-30T14:08:33.255Z,20.70
2017-09-30T14:11:02.108Z,20.70
2017-09-30T14:13:30.207Z,20.60
2017-09-30T14:15:58.271Z,20.70
2017-09-30T14:18:26.361Z,20.50
2017-09-30T14:20:55.198Z,20.70
2017-09-30T14:23:23.293Z,20.70
2017-09-30T14:25:51.377Z,20.70
2017-09-30T14:28:20.229Z,20.60
2017-09-30T14:30:48.300Z,20.60
2017-09-30T14:33:16.380Z,20.50
2017-09-30T14:35:44.455Z,20.40
2017-09-30T14:38:12.543Z,20.20
2017-09-30T14:40:40.640Z,20.30
2017-09-30T14:43:08.744Z,20.10
2017-09-30T14:45:36.852Z,20.30
2017-09-30T14:48:04.932Z,20.30
2017-09-30T14:50:33.779Z,20.20
2017-09-30T14:53:01.871Z,20.20
2017-09-30T14:55:29.950Z,20.20
2017-09-30T14:57:58.045Z,20.20
2017-09-30T15:00:26.891Z,20.30
2017-09-30T15:02:55.181Z,20.20
2017-09-30T15:05:23.256Z,20.10
2017-09-30T15:07:51.342Z,20.10
2017-09-30T15:10:20.199Z,19.90
2017-09-30T15:12:48.291Z,19.90
2017-09-30T15:15:17.144Z,19.70
2017-09-30T15:17:45.247Z,19.70
2017-09-30T15:20:13.316Z,19.70
2017-09-30T15:22:41.420Z,19.60
2017-09-30T15:25:09.504Z,19.60
2017-09-30T15:27:37.586Z,19.60
2017-09-30T15:30:05.679Z,19.50
2017-09-30T15:32:33.764Z,19.50
2017-09-30T15:35:01.892Z,19.50
2017-09-30T15:37:29.971Z,19.50
2017-09-30T15:39:58.119Z,19.50
2017-09-30T15:42:26.205Z,19.50
2017-09-30T15:44:54.295Z,19.60
2017-09-30T15:47:22.486Z,19.50
2017-09-30T15:49:50.754Z,19.50
2017-09-30T15:52:20.360Z,19.40
2017-09-30T15:54:48.536Z,19.40
2017-09-30T15:57:16.623Z,19.40
2017-09-30T15:59:45.491Z,19.30
2017-09-30T16:02:13.570Z,19.20
2017-09-30T16:04:41.650Z,19.20
2017-09-30T16:07:10.507Z,19.10
2017-09-30T16:09:38.597Z,19.10
2017-09-30T16:12:06.683Z,19.10
2017-09-30T16:14:34.813Z,19.00
2017-09-30T16:17:02.903Z,18.90
2017-09-30T16:19:30.975Z,18.80
2017-09-30T16:21:59.071Z,18.90
2017-09-30T16:24:27.920Z,18.70
2017-09-30T16:26:56.012Z,18.70
2017-09-30T16:29:24.142Z,18.60
2017-09-30T16:31:52.222Z,18.50
2017-09-30T16:34:20.313Z,18.50
2017-09-30T16:36:49.928Z,18.40
2017-09-30T16:39:18.799Z,18.30
2017-09-30T16:41:46.995Z,18.30
2017-09-30T16:44:15.070Z,18.30
2017-09-30T16:46:43.913Z,18.20
2017-09-30T16:49:12.015Z,18.20
2017-09-30T16:51:40.091Z,18.10
2017-09-30T16:54:08.168Z,18.00
2017-09-30T16:56:36.247Z,18.00
2017-09-30T16:59:05.103Z,17.90
2017-09-30T17:01:33.193Z,17.90
2017-09-30T17:04:01.296Z,17.90
2017-09-30T17:06:29.372Z,17.90
2017-09-30T17:08:57.480Z,17.80
2017-09-30T17:11:25.576Z,17.80
2017-09-30T17:13:53.668Z,17.70
2017-09-30T17:16:22.522Z,17.50
2017-09-30T17:18:50.599Z,17.60
2017-09-30T17:21:18.683Z,17.30
2017-09-30T17:23:47.535Z,17.10
2017-09-30T17:26:15.608Z,17.10
2017-09-30T17:28:43.700Z,16.90
2017-09-30T17:31:11.785Z,17.10
2017-09-30T17:33:39.863Z,17.30
2017-09-30T17:36:08.722Z,17.30
2017-09-30T17:38:36.818Z,17.30
2017-09-30T17:41:05.736Z,17.10
2017-09-30T17:43:33.836Z,17.00
2017-09-30T17:46:01.934Z,17.00
2017-09-30T17:48:30.006Z,17.00
2017-09-30T17:50:58.873Z,16.60
2017-09-30T17:53:26.946Z,16.60
2017-09-30T17:55:55.040Z,16.50
2017-09-30T17:58:23.896Z,16.20
2017-09-30T18:00:51.990Z,16.20
2017-09-30T18:03:20.079Z,16.10
2017-09-30T18:05:48.952Z,16.00
2017-09-30T18:08:17.031Z,16.00
2017-09-30T18:10:45.889Z,16.20
2017-09-30T18:13:14.060Z,16.20
2017-09-30T18:15:42.143Z,16.10
2017-09-30T18:18:11.045Z,16.10
2017-09-30T18:20:39.131Z,16.20
2017-09-30T18:23:07.992Z,16.40
2017-09-30T18:25:36.164Z,16.40
2017-09-30T18:28:04.247Z,16.40
2017-09-30T18:30:32.334Z,16.70
2017-09-30T18:33:00.423Z,16.70
2017-09-30T18:35:28.514Z,16.80
2017-09-30T18:37:56.607Z,16.70
2017-09-30T18:40:24.791Z,16.20
2017-09-30T18:42:52.884Z,16.30
2017-09-30T18:45:21.747Z,16.40
2017-09-30T18:47:49.852Z,16.30
2017-09-30T18:50:18.024Z,16.40
2017-09-30T18:52:46.874Z,16.40
2017-09-30T18:55:14.964Z,16.40
2017-09-30T18:57:43.856Z,16.40
2017-09-30T19:00:12.711Z,16.40
2017-09-30T19:02:40.976Z,16.40
2017-09-30T19:05:09.216Z,16.40
2017-09-30T19:07:38.182Z,16.40
2017-09-30T19:10:06.431Z,16.40
2017-09-30T19:12:34.775Z,16.40
2017-09-30T19:15:03.126Z,16.40
2017-09-30T19:17:31.470Z,16.40
2017-09-30T19:19:59.622Z,16.40
2017-09-30T19:22:28.268Z,16.40
2017-09-30T19:24:57.187Z,16.50
2017-09-30T19:27:25.383Z,16.50
2017-09-30T19:29:54.432Z,16.10
2017-09-30T19:32:23.518Z,15.90
2017-09-30T19:34:51.819Z,15.80
2017-09-30T19:37:20.072Z,15.80
2017-09-30T19:39:48.416Z,15.70
2017-09-30T19:42:17.464Z,15.40
2017-09-30T19:44:45.576Z,15.40
2017-09-30T19:47:13.707Z,15.20
2017-09-30T19:49:42.126Z,14.90
2017-09-30T19:52:10.463Z,14.90
2017-09-30T19:54:38.698Z,14.80
2017-09-30T19:57:06.876Z,14.80
2017-09-30T19:59:34.985Z,14.60
2017-09-30T20:02:03.225Z,14.60
2017-09-30T20:04:31.455Z,14.50
2017-09-30T20:06:59.640Z,14.40
2017-09-30T20:09:28.676Z,14.50
2017-09-30T20:11:56.891Z,14.50
2017-09-30T20:14:24.975Z,14.70
2017-09-30T20:16:53.051Z,14.90
2017-09-30T20:19:21.313Z,15.00
2017-09-30T20:21:50.915Z,14.70
2017-09-30T20:24:19.000Z,14.70
2017-09-30T20:26:47.073Z,14.70
2017-09-30T20:29:15.927Z,14.10
2017-09-30T20:31:44.023Z,14.10
2017-09-30T20:34:12.194Z,14.00
2017-09-30T20:36:40.296Z,14.00
2017-09-30T20:39:09.118Z,13.80
2017-09-30T20:41:37.190Z,13.80
2017-09-30T20:44:05.396Z,13.80
2017-09-30T20:46:33.479Z,13.80
2017-09-30T20:49:02.332Z,14.20
2017-09-30T20:51:30.411Z,14.20
2017-09-30T20:53:58.508Z,14.30
2017-09-30T20:56:27.344Z,14.30
2017-09-30T20:58:55.419Z,14.30
2017-09-30T21:01:23.514Z,14.30
2017-09-30T21:03:51.690Z,14.20
2017-09-30T21:06:20.585Z,14.10
2017-09-30T21:08:48.655Z,14.10
2017-09-30T21:11:16.751Z,14.10
2017-09-30T21:13:44.877Z,13.90
2017-09-30T21:16:12.963Z,14.00
2017-09-30T21:18:41.043Z,14.00
2017-09-30T21:21:10.019Z,13.90
2017-09-30T21:23:39.616Z,13.80
2017-09-30T21:26:08.631Z,13.70
2017-09-30T21:28:36.724Z,13.60
2017-09-30T21:31:04.800Z,13.80
2017-09-30T21:33:32.887Z,13.60
2017-09-30T21:36:00.973Z,13.70
2017-09-30T21:38:29.046Z,13.50
2017-09-30T21:40:57.238Z,13.50
2017-09-30T21:43:26.824Z,13.60
2017-09-30T21:45:54.904Z,13.60
2017-09-30T21:48:22.991Z,13.10
2017-09-30T21:50:51.095Z,13.20
2017-09-30T21:53:19.940Z,12.90
2017-09-30T21:55:48.023Z,12.90
2017-09-30T21:58:16.112Z,13.00
2017-09-30T22:00:44.959Z,12.80
2017-09-30T22:03:13.028Z,12.80
2017-09-30T22:05:41.113Z,12.80
2017-09-30T22:08:09.187Z,12.80
2017-09-30T22:10:37.269Z,12.70
2017-09-30T22:13:05.346Z,12.80
2017-09-30T22:15:34.204Z,12.80
2017-09-30T22:18:02.272Z,12.80
2017-09-30T22:20:30.403Z,12.80
2017-09-30T22:22:58.474Z,12.60
2017-09-30T22:25:26.558Z,12.70
2017-09-30T22:27:54.868Z,12.70
2017-09-30T22:30:22.959Z,12.70
2017-09-30T22:32:51.035Z,12.60
2017-09-30T22:35:19.116Z,12.50
2017-09-30T22:37:47.355Z,12.50
2017-09-30T22:40:15.442Z,12.50
2017-09-30T22:42:44.286Z,12.50
2017-09-30T22:45:12.367Z,12.50
2017-09-30T22:47:40.453Z,12.50
2017-09-30T22:50:08.530Z,12.50
2017-09-30T22:52:36.804Z,12.50
2017-09-30T22:55:04.887Z,12.70
2017-09-30T22:57:32.950Z,12.80
2017-09-30T23:00:01.031Z,12.90
2017-09-30T23:02:29.875Z,12.50
2017-09-30T23:04:57.966Z,12.50
2017-09-30T23:07:26.047Z,12.50
2017-09-30T23:09:54.128Z,12.30
2017-09-30T23:12:22.198Z,12.20
2017-09-30T23:14:50.334Z,12.20
2017-09-30T23:17:18.414Z,12.30
2017-09-30T23:19:47.371Z,12.20
2017-09-30T23:22:15.460Z,12.20
2017-09-30T23:24:43.632Z,12.30
2017-09-30T23:27:11.713Z,12.20
2017-09-30T23:29:39.807Z,12.20
2017-09-30T23:32:07.879Z,12.20
2017-09-30T23:34:36.730Z,12.10
2017-09-30T23:37:04.812Z,12.00
2017-09-30T23:39:32.991Z,12.00
2017-09-30T23:42:02.576Z,11.90
2017-09-30T23:44:30.663Z,12.00
2017-09-30T23:46:58.739Z,12.00
2017-09-30T23:49:27.679Z,12.10
2017-09-30T23:51:55.758Z,12.10
2017-09-30T23:54:23.838Z,12.10
2017-09-30T23:56:52.031Z,12.00
2017-09-30T23:59:20.251Z,12.00
